createdAt,value
2023-03-16T00:00:49.619Z,2.30
2023-03-16T00:03:20.427Z,2.20
2023-03-16T00:05:53.387Z,2.20
2023-03-16T00:08:21.101Z,2.20
2023-03-16T00:10:49.010Z,2.10
2023-03-16T00:13:19.209Z,2.10
2023-03-16T00:16:00.013Z,2.10
2023-03-16T00:18:29.171Z,2.00
2023-03-16T00:21:03.021Z,2.00
2023-03-16T00:23:50.335Z,2.00
2023-03-16T00:26:17.909Z,1.90
2023-03-16T00:28:45.511Z,1.90
2023-03-16T00:31:13.962Z,1.80
2023-03-16T00:33:42.924Z,1.80
2023-03-16T00:36:11.559Z,1.80
2023-03-16T00:38:45.213Z,1.80
2023-03-16T00:41:15.210Z,1.80
2023-03-16T00:43:45.303Z,1.80
2023-03-16T00:46:16.428Z,1.70
2023-03-16T00:48:47.068Z,1.70
2023-03-16T00:51:17.846Z,1.70
2023-03-16T00:53:47.034Z,1.70
2023-03-16T00:56:15.656Z,1.70
2023-03-16T00:58:43.826Z,1.70
2023-03-16T01:01:18.992Z,1.60
2023-03-16T01:03:47.030Z,1.70
2023-03-16T01:06:17.764Z,1.70
2023-03-16T01:08:45.327Z,1.70
2023-03-16T01:11:18.508Z,1.60
2023-03-16T01:13:49.350Z,1.60
2023-03-16T01:16:23.318Z,1.60
2023-03-16T01:18:52.559Z,1.60
2023-03-16T01:21:21.776Z,1.50
2023-03-16T01:23:50.564Z,1.50
2023-03-16T01:26:20.440Z,1.50
2023-03-16T01:28:49.409Z,1.50
2023-03-16T01:31:17.160Z,1.50
2023-03-16T01:33:44.710Z,1.50
2023-03-16T01:36:18.415Z,1.40
2023-03-16T01:39:00.185Z,1.40
2023-03-16T01:41:31.159Z,1.40
2023-03-16T01:43:59.666Z,1.40
2023-03-16T01:46:29.735Z,1.30
2023-03-16T01:49:33.853Z,1.40
2023-03-16T01:52:12.700Z,1.40
2023-03-16T01:54:50.878Z,1.40
2023-03-16T01:57:30.886Z,1.50
2023-03-16T02:00:21.059Z,1.50
2023-03-16T02:03:07.158Z,1.50
2023-03-16T02:06:06.702Z,1.40
2023-03-16T02:08:38.684Z,1.50
2023-03-16T02:11:08.377Z,1.50
2023-03-16T02:13:46.447Z,1.50
2023-03-16T02:16:19.343Z,1.50
2023-03-16T02:18:48.604Z,1.50
2023-03-16T02:21:37.750Z,1.60
2023-03-16T02:24:06.157Z,1.70
2023-03-16T02:26:59.354Z,1.70
2023-03-16T02:29:59.446Z,1.70
2023-03-16T02:32:32.157Z,1.80
2023-03-16T02:35:02.418Z,1.80
2023-03-16T02:37:30.367Z,1.80
2023-03-16T02:39:57.899Z,1.80
2023-03-16T02:42:28.138Z,1.80
2023-03-16T02:45:00.269Z,1.70
2023-03-16T02:47:41.625Z,1.70
2023-03-16T02:50:12.446Z,1.70
2023-03-16T02:52:41.046Z,1.70
2023-03-16T02:55:09.424Z,1.70
2023-03-16T02:57:36.983Z,1.70
2023-03-16T03:00:18.820Z,1.70
2023-03-16T03:02:49.470Z,1.70
2023-03-16T03:05:17.090Z,1.70
2023-03-16T03:07:44.741Z,1.70
2023-03-16T03:10:13.904Z,1.70
2023-03-16T03:12:41.482Z,1.60
2023-03-16T03:15:11.839Z,1.60
2023-03-16T03:17:47.153Z,1.60
2023-03-16T03:20:16.584Z,1.50
2023-03-16T03:22:49.252Z,1.50
2023-03-16T03:25:19.079Z,1.40
2023-03-16T03:27:48.724Z,1.40
2023-03-16T03:30:22.448Z,1.40
2023-03-16T03:32:50.004Z,1.40
2023-03-16T03:35:21.335Z,1.40
2023-03-16T03:37:49.370Z,1.40
2023-03-16T03:40:19.932Z,1.40
2023-03-16T03:42:51.424Z,1.40
2023-03-16T03:45:19.154Z,1.50
2023-03-16T03:47:46.921Z,1.50
2023-03-16T03:50:19.709Z,1.50
2023-03-16T03:53:09.779Z,1.50
2023-03-16T03:55:52.639Z,1.40
2023-03-16T03:58:20.221Z,1.40
2023-03-16T04:00:47.783Z,1.40
2023-03-16T04:03:16.240Z,1.50
2023-03-16T04:05:45.903Z,1.50
2023-03-16T04:08:13.632Z,1.50
2023-03-16T04:10:41.453Z,1.60
2023-03-16T04:13:09.048Z,1.60
2023-03-16T04:15:38.741Z,1.60
2023-03-16T04:18:18.058Z,1.50
2023-03-16T04:20:45.680Z,1.50
2023-03-16T04:23:17.477Z,1.50
2023-03-16T04:25:48.270Z,1.50
2023-03-16T04:28:18.305Z,1.50
2023-03-16T04:30:50.599Z,1.50
2023-03-16T04:33:23.735Z,1.60
2023-03-16T04:35:52.247Z,1.50
2023-03-16T04:38:22.105Z,1.50
2023-03-16T04:40:56.466Z,1.50
2023-03-16T04:43:28.022Z,1.50
2023-03-16T04:46:03.596Z,1.40
2023-03-16T04:48:32.526Z,1.50
2023-03-16T04:51:01.552Z,1.50
2023-03-16T04:53:32.169Z,1.50
2023-03-16T04:56:04.091Z,1.50
2023-03-16T04:58:33.052Z,1.40
2023-03-16T05:01:02.426Z,1.40
2023-03-16T05:03:34.726Z,1.30
2023-03-16T05:06:05.165Z,1.30
2023-03-16T05:08:34.928Z,1.30
2023-03-16T05:11:02.499Z,1.30
2023-03-16T05:13:36.199Z,1.30
2023-03-16T05:16:05.335Z,1.30
2023-03-16T05:18:37.621Z,1.30
2023-03-16T05:21:05.335Z,1.30
2023-03-16T05:23:45.164Z,1.30
2023-03-16T05:26:13.962Z,1.30
2023-03-16T05:28:42.585Z,1.40
2023-03-16T05:31:13.407Z,1.30
2023-03-16T05:33:45.804Z,1.30
2023-03-16T05:36:18.016Z,1.40
2023-03-16T05:38:48.645Z,1.40
2023-03-16T05:41:26.473Z,1.40
2023-03-16T05:43:53.928Z,1.50
2023-03-16T05:46:24.743Z,1.50
2023-03-16T05:48:53.415Z,1.50
2023-03-16T05:51:22.284Z,1.60
2023-03-16T05:53:49.827Z,1.50
2023-03-16T05:56:28.917Z,1.50
2023-03-16T05:58:57.418Z,1.40
2023-03-16T06:01:26.655Z,1.40
2023-03-16T06:03:54.869Z,1.50
2023-03-16T06:06:26.493Z,1.50
2023-03-16T06:09:06.959Z,1.50
2023-03-16T06:11:34.720Z,1.50
2023-03-16T06:14:02.682Z,1.50
2023-03-16T06:16:30.328Z,1.40
2023-03-16T06:18:59.771Z,1.50
2023-03-16T06:21:28.998Z,1.50
2023-03-16T06:24:02.428Z,1.50
2023-03-16T06:26:30.973Z,1.40
2023-03-16T06:28:58.719Z,1.50
2023-03-16T06:31:26.925Z,1.40
2023-03-16T06:33:54.470Z,1.40
2023-03-16T06:36:22.367Z,1.40
2023-03-16T06:38:54.496Z,1.40
2023-03-16T06:41:29.264Z,1.40
2023-03-16T06:43:57.303Z,1.40
2023-03-16T06:46:24.986Z,1.40
2023-03-16T06:48:53.262Z,1.50
2023-03-16T06:51:20.980Z,1.60
2023-03-16T06:53:50.424Z,1.70
2023-03-16T06:56:18.402Z,1.70
2023-03-16T06:58:47.305Z,1.80
2023-03-16T07:01:16.205Z,1.80
2023-03-16T07:03:43.781Z,1.80
2023-03-16T07:06:20.474Z,1.80
2023-03-16T07:08:48.136Z,1.90
2023-03-16T07:11:16.328Z,1.90
2023-03-16T07:13:44.255Z,1.90
2023-03-16T07:16:13.051Z,1.90
2023-03-16T07:18:44.101Z,2.00
2023-03-16T07:21:14.293Z,2.00
2023-03-16T07:23:41.872Z,2.00
2023-03-16T07:26:12.026Z,2.00
2023-03-16T07:28:48.954Z,2.00
2023-03-16T07:31:17.318Z,2.00
2023-03-16T07:33:46.072Z,2.10
2023-03-16T07:36:19.120Z,2.10
2023-03-16T07:38:54.608Z,2.20
2023-03-16T07:41:22.379Z,2.30
2023-03-16T07:43:49.908Z,2.30
2023-03-16T07:46:17.854Z,2.30
2023-03-16T07:48:45.811Z,2.40
2023-03-16T07:51:14.339Z,2.40
2023-03-16T07:53:45.821Z,2.40
2023-03-16T07:56:24.804Z,2.40
2023-03-16T07:58:55.602Z,2.50
2023-03-16T08:01:24.242Z,2.50
2023-03-16T08:03:51.873Z,2.60
2023-03-16T08:06:21.209Z,2.70
2023-03-16T08:08:48.869Z,2.70
2023-03-16T08:11:24.369Z,2.80
2023-03-16T08:14:04.173Z,2.80
2023-03-16T08:16:50.404Z,2.90
2023-03-16T08:19:20.222Z,2.90
2023-03-16T08:22:00.970Z,2.90
2023-03-16T08:24:33.888Z,3.00
2023-03-16T08:27:03.830Z,3.10
2023-03-16T08:29:34.432Z,3.10
2023-03-16T08:32:04.046Z,3.20
2023-03-16T08:34:39.863Z,3.30
2023-03-16T08:37:07.589Z,3.40
2023-03-16T08:39:35.700Z,3.40
2023-03-16T08:42:08.024Z,3.40
2023-03-16T08:44:42.463Z,3.50
2023-03-16T08:47:11.875Z,3.50
2023-03-16T08:49:42.775Z,3.60
2023-03-16T08:52:13.610Z,3.70
2023-03-16T08:54:49.683Z,3.80
2023-03-16T08:57:21.186Z,3.80
2023-03-16T08:59:48.691Z,3.90
2023-03-16T09:02:16.782Z,3.90
2023-03-16T09:04:45.987Z,4.00
2023-03-16T09:07:14.009Z,4.10
2023-03-16T09:09:41.534Z,4.20
2023-03-16T09:12:09.193Z,4.30
2023-03-16T09:14:38.348Z,4.40
2023-03-16T09:17:07.771Z,4.50
2023-03-16T09:19:50.703Z,4.50
2023-03-16T09:22:20.231Z,4.60
2023-03-16T09:24:49.592Z,4.70
2023-03-16T09:27:18.404Z,4.80
2023-03-16T09:29:46.655Z,4.80
2023-03-16T09:32:14.448Z,4.90
2023-03-16T09:34:42.418Z,5.00
2023-03-16T09:37:10.175Z,5.00
2023-03-16T09:39:38.212Z,5.10
2023-03-16T09:42:46.006Z,5.20
2023-03-16T09:45:47.466Z,5.30
2023-03-16T09:48:17.352Z,5.40
2023-03-16T09:50:49.113Z,5.50
2023-03-16T09:53:39.455Z,5.60
2023-03-16T09:56:31.924Z,5.70
2023-03-16T09:59:01.854Z,5.80
2023-03-16T10:02:01.876Z,5.90
2023-03-16T10:05:06.287Z,6.10
2023-03-16T10:08:03.398Z,6.20
2023-03-16T10:11:19.043Z,6.40
2023-03-16T10:13:56.840Z,6.50
2023-03-16T10:16:50.484Z,6.50
2023-03-16T10:19:58.765Z,6.60
2023-03-16T10:22:34.774Z,6.70
2023-03-16T10:25:15.374Z,6.70
2023-03-16T10:27:45.974Z,6.80
2023-03-16T10:30:28.585Z,6.80
2023-03-16T10:33:01.673Z,6.80
2023-03-16T10:35:40.459Z,6.90
2023-03-16T10:38:25.124Z,6.90
2023-03-16T10:40:53.823Z,7.00
2023-03-16T10:43:21.354Z,7.00
2023-03-16T10:45:49.855Z,7.00
2023-03-16T10:48:21.181Z,7.10
2023-03-16T10:50:57.027Z,7.10
2023-03-16T10:53:31.538Z,7.20
2023-03-16T10:56:20.010Z,7.20
2023-03-16T10:58:47.631Z,7.30
2023-03-16T11:01:23.714Z,7.30
2023-03-16T11:03:55.073Z,7.30
2023-03-16T11:06:30.794Z,7.40
2023-03-16T11:09:21.218Z,7.40
2023-03-16T11:11:49.965Z,7.50
2023-03-16T11:14:26.052Z,7.60
2023-03-16T11:17:10.673Z,7.60
2023-03-16T11:19:57.594Z,7.60
2023-03-16T11:22:26.741Z,7.60
2023-03-16T11:25:04.361Z,7.70
2023-03-16T11:27:54.061Z,7.70
2023-03-16T11:31:16.805Z,7.80
2023-03-16T11:33:44.414Z,8.00
2023-03-16T11:36:35.997Z,8.00
2023-03-16T11:39:40.328Z,8.00
2023-03-16T11:42:33.438Z,8.10
2023-03-16T11:45:20.266Z,8.20
2023-03-16T11:48:03.441Z,8.20
2023-03-16T11:50:59.284Z,8.30
2023-03-16T11:53:48.423Z,8.40
2023-03-16T11:56:31.881Z,8.40
2023-03-16T11:59:17.478Z,8.50
2023-03-16T12:02:16.899Z,8.60
2023-03-16T12:05:22.370Z,8.80
2023-03-16T12:08:10.060Z,8.90
2023-03-16T12:11:04.609Z,9.10
2023-03-16T12:13:41.407Z,9.30
2023-03-16T12:16:46.358Z,9.40
2023-03-16T12:19:54.387Z,9.60
2023-03-16T12:22:39.934Z,9.70
2023-03-16T12:25:24.783Z,9.80
2023-03-16T12:28:01.724Z,10.10
2023-03-16T12:31:01.661Z,10.10
2023-03-16T12:33:53.985Z,10.20
2023-03-16T12:36:55.793Z,10.40
2023-03-16T12:39:54.756Z,10.50
2023-03-16T12:42:34.684Z,10.60
2023-03-16T12:45:35.373Z,10.70
2023-03-16T12:48:16.061Z,10.70
2023-03-16T12:50:56.753Z,10.70
2023-03-16T12:53:53.188Z,10.70
2023-03-16T12:56:33.841Z,10.70
2023-03-16T12:59:10.398Z,10.70
2023-03-16T13:01:43.689Z,10.70
2023-03-16T13:04:38.912Z,10.70
2023-03-16T13:07:11.853Z,10.80
2023-03-16T13:09:49.475Z,10.80
2023-03-16T13:12:30.928Z,10.90
2023-03-16T13:14:58.971Z,11.10
2023-03-16T13:17:32.991Z,11.10
2023-03-16T13:20:31.818Z,11.10
2023-03-16T13:23:22.257Z,11.20
2023-03-16T13:26:01.728Z,11.20
2023-03-16T13:28:36.709Z,11.20
2023-03-16T13:31:20.827Z,11.30
2023-03-16T13:33:49.465Z,11.30
2023-03-16T13:36:17.549Z,11.30
2023-03-16T13:39:18.792Z,11.40
2023-03-16T13:42:04.665Z,11.50
2023-03-16T13:44:32.862Z,11.60
2023-03-16T13:47:05.401Z,11.70
2023-03-16T13:49:33.555Z,11.80
2023-03-16T13:52:03.716Z,11.90
2023-03-16T13:54:31.695Z,12.00
2023-03-16T13:57:06.368Z,12.00
2023-03-16T13:59:34.039Z,12.10
2023-03-16T14:02:01.930Z,12.20
2023-03-16T14:04:32.782Z,12.20
2023-03-16T14:07:03.651Z,12.30
2023-03-16T14:09:35.705Z,12.40
2023-03-16T14:12:03.719Z,12.40
2023-03-16T14:14:39.370Z,12.50
2023-03-16T14:17:19.707Z,12.60
2023-03-16T14:19:58.572Z,12.70
2023-03-16T14:22:34.764Z,12.70
2023-03-16T14:25:05.482Z,12.80
2023-03-16T14:27:44.941Z,12.80
2023-03-16T14:30:24.317Z,12.90
2023-03-16T14:33:04.058Z,12.90
2023-03-16T14:35:41.541Z,12.90
2023-03-16T14:38:36.894Z,12.90
2023-03-16T14:41:26.367Z,12.90
2023-03-16T14:44:02.994Z,12.90
2023-03-16T14:46:38.047Z,12.90
2023-03-16T14:49:27.975Z,12.90
2023-03-16T14:52:27.324Z,12.90
2023-03-16T14:54:55.219Z,12.90
2023-03-16T14:57:23.089Z,12.80
2023-03-16T14:59:50.798Z,12.90
2023-03-16T15:02:29.577Z,12.90
2023-03-16T15:05:00.028Z,13.00
2023-03-16T15:07:41.093Z,13.00
2023-03-16T15:10:15.251Z,13.00
2023-03-16T15:12:50.361Z,13.10
2023-03-16T15:15:22.390Z,13.10
2023-03-16T15:17:52.895Z,13.10
2023-03-16T15:20:25.476Z,13.00
2023-03-16T15:22:53.623Z,13.10
2023-03-16T15:25:37.181Z,13.00
2023-03-16T15:28:17.781Z,13.00
2023-03-16T15:30:52.456Z,13.00
2023-03-16T15:33:20.525Z,12.90
2023-03-16T15:35:51.350Z,12.80
2023-03-16T15:38:34.586Z,12.80
2023-03-16T15:41:02.950Z,12.80
2023-03-16T15:43:32.535Z,12.70
2023-03-16T15:46:00.107Z,12.70
2023-03-16T15:48:27.989Z,12.70
2023-03-16T15:50:59.742Z,12.60
2023-03-16T15:53:52.981Z,12.50
2023-03-16T15:56:29.680Z,12.40
2023-03-16T15:59:04.841Z,12.40
2023-03-16T16:01:45.026Z,12.30
2023-03-16T16:04:19.769Z,12.20
2023-03-16T16:06:49.368Z,12.20
2023-03-16T16:09:17.181Z,12.10
2023-03-16T16:11:47.078Z,12.10
2023-03-16T16:14:27.945Z,11.90
2023-03-16T16:16:55.677Z,11.90
2023-03-16T16:19:23.243Z,11.90
2023-03-16T16:21:50.792Z,11.90
2023-03-16T16:24:18.429Z,11.90
2023-03-16T16:26:54.141Z,11.90
2023-03-16T16:29:33.821Z,11.90
2023-03-16T16:32:01.888Z,11.80
2023-03-16T16:34:29.588Z,11.80
2023-03-16T16:36:57.849Z,11.70
2023-03-16T16:39:25.725Z,11.70
2023-03-16T16:41:55.200Z,11.70
2023-03-16T16:44:29.735Z,11.60
2023-03-16T16:46:59.613Z,11.50
2023-03-16T16:49:31.163Z,11.40
2023-03-16T16:51:59.567Z,11.40
2023-03-16T16:54:31.553Z,11.30
2023-03-16T16:57:00.543Z,11.30
2023-03-16T16:59:37.720Z,11.30
2023-03-16T17:02:28.603Z,11.20
2023-03-16T17:04:57.067Z,11.10
2023-03-16T17:07:24.948Z,10.90
2023-03-16T17:09:52.507Z,10.80
2023-03-16T17:12:22.897Z,10.70
2023-03-16T17:14:51.616Z,10.60
2023-03-16T17:17:19.240Z,10.60
2023-03-16T17:19:48.156Z,10.50
2023-03-16T17:22:28.440Z,10.40
2023-03-16T17:24:56.270Z,10.40
2023-03-16T17:27:29.367Z,10.30
2023-03-16T17:29:57.736Z,10.30
2023-03-16T17:32:26.455Z,10.30
2023-03-16T17:34:54.156Z,10.20
2023-03-16T17:37:23.193Z,10.20
2023-03-16T17:39:51.845Z,10.20
2023-03-16T17:42:20.298Z,10.10
2023-03-16T17:44:50.693Z,10.00
2023-03-16T17:47:26.423Z,10.00
2023-03-16T17:49:54.624Z,10.00
2023-03-16T17:52:26.065Z,10.00
2023-03-16T17:54:54.540Z,9.90
2023-03-16T17:57:30.583Z,9.90
2023-03-16T18:00:00.339Z,9.90
2023-03-16T18:02:46.649Z,9.90
2023-03-16T18:05:35.449Z,9.80
2023-03-16T18:08:26.146Z,9.80
2023-03-16T18:11:01.298Z,9.80
2023-03-16T18:13:37.964Z,9.70
2023-03-16T18:16:06.707Z,9.60
2023-03-16T18:18:38.296Z,9.60
2023-03-16T18:21:06.137Z,9.60
2023-03-16T18:23:35.928Z,9.50
2023-03-16T18:26:04.157Z,9.60
2023-03-16T18:28:33.364Z,9.50
2023-03-16T18:31:03.629Z,9.40
2023-03-16T18:33:41.035Z,9.40
2023-03-16T18:36:22.069Z,9.40
2023-03-16T18:38:51.597Z,9.40
2023-03-16T18:41:29.280Z,9.40
2023-03-16T18:44:13.345Z,9.40
2023-03-16T18:46:41.119Z,9.40
2023-03-16T18:49:23.944Z,9.40
2023-03-16T18:51:54.489Z,9.30
2023-03-16T18:54:29.202Z,9.30
2023-03-16T18:56:58.799Z,9.20
2023-03-16T18:59:26.893Z,9.20
2023-03-16T19:01:54.664Z,9.20
2023-03-16T19:04:24.320Z,9.20
2023-03-16T19:06:54.144Z,9.10
2023-03-16T19:09:25.431Z,9.10
2023-03-16T19:11:53.108Z,9.10
2023-03-16T19:14:28.292Z,9.10
2023-03-16T19:16:56.163Z,9.00
2023-03-16T19:19:24.854Z,9.00
2023-03-16T19:22:21.808Z,9.00
2023-03-16T19:24:53.341Z,9.00
2023-03-16T19:27:26.143Z,9.00
2023-03-16T19:29:54.863Z,9.00
2023-03-16T19:32:22.975Z,9.00
2023-03-16T19:34:51.159Z,9.00
2023-03-16T19:37:19.738Z,9.00
2023-03-16T19:39:47.352Z,9.00
2023-03-16T19:42:36.926Z,8.90
2023-03-16T19:45:05.898Z,8.90
2023-03-16T19:47:35.293Z,8.80
2023-03-16T19:50:12.834Z,8.80
2023-03-16T19:52:40.342Z,8.80
2023-03-16T19:55:09.564Z,8.80
2023-03-16T19:57:37.531Z,8.80
2023-03-16T20:00:06.512Z,8.80
2023-03-16T20:02:40.306Z,8.80
2023-03-16T20:05:14.739Z,8.80
2023-03-16T20:07:42.237Z,8.70
2023-03-16T20:10:20.013Z,8.70
2023-03-16T20:12:50.900Z,8.70
2023-03-16T20:15:21.013Z,8.70
2023-03-16T20:17:51.026Z,8.70
2023-03-16T20:20:28.313Z,8.70
2023-03-16T20:22:59.462Z,8.70
2023-03-16T20:25:31.758Z,8.70
2023-03-16T20:28:02.104Z,8.70
2023-03-16T20:30:31.051Z,8.60
2023-03-16T20:32:58.708Z,8.60
2023-03-16T20:35:31.020Z,8.60
2023-03-16T20:37:58.790Z,8.50
2023-03-16T20:40:26.934Z,8.60
2023-03-16T20:42:54.469Z,8.60
2023-03-16T20:45:27.127Z,8.60
2023-03-16T20:47:54.978Z,8.60
2023-03-16T20:50:29.254Z,8.50
2023-03-16T20:52:57.423Z,8.50
2023-03-16T20:55:28.964Z,8.50
2023-03-16T20:57:57.488Z,8.50
2023-03-16T21:00:37.148Z,8.50
2023-03-16T21:03:20.660Z,8.50
2023-03-16T21:05:50.221Z,8.50
2023-03-16T21:08:19.279Z,8.40
2023-03-16T21:10:49.825Z,8.40
2023-03-16T21:13:33.063Z,8.40
2023-03-16T21:16:04.303Z,8.40
2023-03-16T21:18:33.019Z,8.40
2023-03-16T21:21:00.824Z,8.40
2023-03-16T21:23:28.356Z,8.40
2023-03-16T21:26:00.556Z,8.40
2023-03-16T21:28:32.369Z,8.40
2023-03-16T21:31:01.040Z,8.40
2023-03-16T21:33:35.151Z,8.40
2023-03-16T21:36:06.179Z,8.40
2023-03-16T21:38:34.197Z,8.40
2023-03-16T21:41:01.752Z,8.40
2023-03-16T21:43:29.283Z,8.40
2023-03-16T21:45:57.368Z,8.40
2023-03-16T21:48:37.873Z,8.40
2023-03-16T21:51:22.000Z,8.40
2023-03-16T21:53:49.824Z,8.30
2023-03-16T21:56:22.854Z,8.30
2023-03-16T21:58:52.034Z,8.30
2023-03-16T22:01:27.631Z,8.30
2023-03-16T22:04:01.681Z,8.30
2023-03-16T22:06:29.332Z,8.30
2023-03-16T22:08:59.525Z,8.30
2023-03-16T22:11:30.040Z,8.30
2023-03-16T22:13:59.275Z,8.30
2023-03-16T22:16:32.434Z,8.30
2023-03-16T22:19:00.020Z,8.30
2023-03-16T22:21:43.164Z,8.30
2023-03-16T22:24:30.817Z,8.20
2023-03-16T22:26:59.292Z,8.20
2023-03-16T22:29:33.667Z,8.20
2023-03-16T22:32:10.576Z,8.20
2023-03-16T22:34:56.444Z,8.10
2023-03-16T22:37:28.957Z,8.10
2023-03-16T22:39:58.404Z,8.10
2023-03-16T22:42:38.985Z,8.10
2023-03-16T22:45:21.606Z,8.00
2023-03-16T22:47:49.452Z,8.10
2023-03-16T22:50:19.994Z,8.00
2023-03-16T22:52:51.111Z,8.00
2023-03-16T22:55:24.634Z,8.00
2023-03-16T22:58:03.369Z,8.00
2023-03-16T23:00:31.305Z,8.00
2023-03-16T23:02:59.018Z,7.90
2023-03-16T23:05:29.687Z,7.90
2023-03-16T23:08:02.458Z,7.90
2023-03-16T23:10:31.524Z,7.90
2023-03-16T23:13:00.231Z,7.80
2023-03-16T23:15:31.188Z,7.90
2023-03-16T23:17:59.225Z,7.80
2023-03-16T23:20:31.618Z,7.80
2023-03-16T23:22:59.744Z,7.80
2023-03-16T23:25:27.514Z,7.70
2023-03-16T23:28:02.549Z,7.70
2023-03-16T23:30:31.609Z,7.70
2023-03-16T23:32:59.753Z,7.80
2023-03-16T23:35:31.047Z,7.70
2023-03-16T23:37:59.159Z,7.70
2023-03-16T23:40:29.085Z,7.70
2023-03-16T23:42:59.160Z,7.70
2023-03-16T23:45:46.007Z,7.70
2023-03-16T23:48:18.932Z,7.70
2023-03-16T23:50:50.687Z,7.70
2023-03-16T23:53:19.523Z,7.70
2023-03-16T23:55:47.986Z,7.70
2023-03-16T23:58:16.269Z,7.70
